Time;durP1;ratioP1;P1;durP2;ratioP2;P2;SDS_P1;SDS_P2;PMS_P1;PMS_P2;Temp;Humidity;BMP_temperature;BMP_pressure;BME280_temperature;BME280_humidity;BME280_pressure;Samples;Min_cycle;Max_cycle;Signal;HPM_P1;HPM_P2
2022/01/24 00:02:24;;;;;;;2.97;2.37;;;14.20;94.00;;;14.61;46.72;103036.06;4936490;28;97132;-47
2022/01/24 00:04:50;;;;;;;2.40;2.17;;;14.30;95.50;;;14.47;46.53;103034.50;4944062;28;97415;-49
2022/01/24 00:07:20;;;;;;;1.83;1.70;;;14.00;94.90;;;14.39;47.02;103036.34;4946082;28;97020;-49
2022/01/24 00:09:46;;;;;;;2.10;2.00;;;13.90;94.70;;;14.32;46.28;103029.38;4946797;28;97454;-52
2022/01/24 00:12:18;;;;;;;4.00;1.90;;;13.80;94.40;;;14.27;47.51;103024.13;4943350;28;99360;-50
2022/01/24 00:17:34;;;;;;;2.13;1.83;;;13.80;96.80;;;14.21;47.00;103026.88;4944879;28;96873;-52
2022/01/24 00:28:05;;;;;;;2.07;1.97;;;14.20;95.30;;;14.42;47.22;103036.31;4945736;28;97597;-50
2022/01/24 00:30:32;;;;;;;1.87;1.70;;;14.10;94.90;;;14.47;47.06;103039.81;4937414;28;107367;-50
2022/01/24 00:32:58;;;;;;;2.13;1.93;;;14.20;95.00;;;14.42;47.25;103041.63;4937223;28;96936;-49
2022/01/24 00:35:25;;;;;;;2.23;1.63;;;14.00;95.00;;;14.35;47.37;103034.66;4933810;28;112800;-48
2022/01/24 00:37:50;;;;;;;1.90;1.70;;;13.80;95.10;;;14.40;47.31;103032.78;4938115;28;97446;-52
2022/01/24 00:40:16;;;;;;;1.60;1.40;;;14.00;95.70;;;14.45;47.09;103030.97;4936538;28;97927;-48
2022/01/24 00:45:18;;;;;;;3.23;2.00;;;14.20;96.50;;;14.53;46.83;103021.13;4936699;28;97967;-59
2022/01/24 00:48:04;;;;;;;2.67;2.40;;;14.30;94.90;;;14.41;45.21;103018.63;4949473;28;97413;-51
2022/01/24 00:55:58;;;;;;;2.63;1.83;;;13.80;96.00;;;14.33;47.29;103019.63;4939226;28;97275;-52
2022/01/24 00:58:24;;;;;;;1.63;1.50;;;13.90;96.60;;;14.39;47.26;103015.09;4934818;28;97237;-48
2022/01/24 01:00:51;;;;;;;2.00;1.90;;;14.00;96.50;;;14.36;45.60;103015.16;4936563;28;98181;-50
2022/01/24 01:03:17;;;;;;;2.20;2.00;;;14.00;93.70;;;14.36;45.46;103020.47;4932920;28;98013;-49
2022/01/24 01:18:53;;;;;;;1.50;1.40;;;13.80;95.50;;;14.18;47.42;103012.75;4936093;28;97556;-47
2022/01/24 01:21:18;;;;;;;1.57;1.47;;;13.70;96.50;;;14.24;47.20;103015.31;4933050;28;97475;-47
2022/01/24 01:23:54;;;;;;;1.50;1.37;;;13.80;96.10;;;14.18;46.64;103010.13;4934689;28;121734;-46
2022/01/24 01:26:31;;;;;;;1.53;1.40;;;13.80;95.10;;;14.27;47.39;103009.97;4947230;28;98079;-50
2022/01/24 01:29:06;;;;;;;1.43;1.33;;;13.90;96.50;;;14.38;46.75;103010.69;4937263;28;96882;-52
2022/01/24 01:34:13;;;;;;;1.93;1.70;;;14.20;95.80;;;14.49;45.63;103000.84;4937512;28;97658;-49
2022/01/24 01:55:47;;;;;;;2.07;1.67;;;13.70;94.20;;;14.04;46.70;103006.75;4932088;28;100295;-51
2022/01/24 01:58:20;;;;;;;1.47;1.10;;;13.60;95.10;;;14.18;47.49;103010.13;4951439;28;97493;-49
2022/01/24 02:00:50;;;;;;;2.47;1.90;;;13.80;96.50;;;14.08;44.16;103003.16;4978098;28;97202;-52
2022/01/24 02:03:17;;;;;;;1.60;1.50;;;13.70;93.60;;;14.18;47.45;103004.81;4950069;28;97413;-51
2022/01/24 02:05:43;;;;;;;0.80;0.80;;;13.80;95.00;;;14.19;47.76;103001.25;4960101;28;97941;-47
2022/01/24 02:08:09;;;;;;;1.20;1.10;;;13.80;97.20;;;14.18;47.52;102994.19;4953990;28;98212;-60
2022/01/24 02:10:38;;;;;;;2.07;1.50;;;13.80;95.20;;;14.25;47.58;103001.16;4957622;28;97337;-47
2022/01/24 02:13:04;;;;;;;1.27;1.00;;;13.90;95.10;;;14.26;47.62;103002.91;4951936;28;96794;-48
2022/01/24 02:25:59;;;;;;;1.30;1.20;;;13.70;95.00;;;14.32;47.65;102991.31;4953349;28;97349;-50
2022/01/24 02:28:29;;;;;;;1.23;1.00;;;14.00;97.10;;;14.49;47.11;102990.22;4957641;28;97233;-47
2022/01/24 02:33:30;;;;;;;1.53;1.43;;;14.40;95.80;;;14.57;45.32;102982.09;4958615;28;97191;-47
2022/01/24 02:35:56;;;;;;;2.13;1.93;;;14.40;92.70;;;14.53;46.29;102978.63;4957707;28;114731;-52
2022/01/24 02:46:01;;;;;;;1.10;0.90;;;14.00;94.30;;;14.34;47.27;102979.78;4953065;28;97002;-48
2022/01/24 02:49:11;;;;;;;1.13;1.03;;;14.00;97.10;;;14.56;46.60;102967.06;4964472;28;97012;-49
2022/01/24 02:51:46;;;;;;;1.43;0.90;;;14.40;95.80;;;14.59;46.69;102959.94;4954434;28;97240;-47
2022/01/24 02:54:22;;;;;;;1.10;0.83;;;14.40;95.50;;;14.73;46.28;102961.50;4954436;28;97561;-48
2022/01/24 02:56:47;;;;;;;1.33;0.80;;;14.60;95.70;;;14.80;46.16;102961.38;4954277;28;98052;-48
2022/01/24 02:59:13;;;;;;;1.53;1.43;;;14.80;95.20;;;14.73;44.45;102956.16;4955834;28;97102;-47
2022/01/24 03:01:44;;;;;;;0.67;0.67;;;14.60;92.90;;;14.69;46.15;102954.47;4953551;28;103313;-50
2022/01/24 03:04:15;;;;;;;1.30;1.20;;;14.40;95.90;;;14.67;45.91;102950.97;4959021;28;98095;-51
2022/01/24 03:06:42;;;;;;;1.87;1.30;;;14.40;94.10;;;14.53;43.47;102953.84;4946137;28;100769;-48
2022/01/24 03:09:08;;;;;;;0.87;0.80;;;14.20;93.50;;;14.56;46.39;102938.75;4950553;28;96944;-47
2022/01/24 03:14:18;;;;;;;0.80;0.80;;;14.50;96.00;;;14.78;45.94;102931.31;4951553;28;97275;-52
2022/01/24 03:16:44;;;;;;;0.80;0.80;;;14.70;95.70;;;14.95;45.32;102931.00;4956879;28;97677;-48
2022/01/24 03:19:10;;;;;;;2.43;1.13;;;14.90;93.30;;;14.73;44.63;102926.94;4952802;28;98543;-55
2022/01/24 03:21:36;;;;;;;1.20;1.10;;;14.60;93.20;;;14.78;45.49;102927.78;4952232;28;96987;-52
2022/01/24 03:24:02;;;;;;;0.80;0.60;;;14.60;93.80;;;14.75;46.00;102925.13;4955619;28;97201;-48
2022/01/24 03:26:28;;;;;;;0.60;0.60;;;14.50;94.80;;;14.82;45.67;102925.03;4961939;28;97356;-47
2022/01/24 03:28:54;;;;;;;1.20;1.10;;;14.70;94.90;;;14.71;45.57;102934.06;4958473;28;109391;-49
2022/01/24 03:31:20;;;;;;;1.33;0.90;;;14.50;93.50;;;14.72;45.74;102919.88;4948258;28;112086;-47
2022/01/24 03:33:46;;;;;;;0.67;0.60;;;14.50;94.40;;;14.69;45.59;102936.75;4948776;28;97221;-47
2022/01/24 03:36:11;;;;;;;0.90;0.63;;;14.50;93.60;;;14.63;46.04;102941.31;4950531;28;111560;-48
2022/01/24 03:38:38;;;;;;;1.63;1.00;;;14.30;95.30;;;14.51;45.53;102934.41;4962778;28;100215;-47
2022/01/24 03:41:04;;;;;;;1.83;1.00;;;14.10;93.50;;;14.37;46.61;102937.25;4951418;28;102599;-49
2022/01/24 03:43:30;;;;;;;0.60;0.53;;;13.80;95.60;;;14.42;46.74;102940.69;4958064;28;96994;-50
2022/01/24 03:46:47;;;;;;;0.70;0.70;;;13.90;96.40;;;14.47;46.28;102941.56;4956962;28;108156;-51
2022/01/24 03:48:52;;;;;;;2.70;1.07;;;14.10;95.00;;;14.40;44.00;102947.81;4949833;28;99854;-50
2022/01/24 03:51:21;;;;;;;0.60;0.60;;;14.10;93.50;;;14.38;46.89;102943.44;4949335;28;97494;-49
2022/01/24 03:53:49;;;;;;;1.43;0.90;;;14.00;96.20;;;14.38;45.17;102944.31;4961509;28;97810;-47
2022/01/24 03:56:16;;;;;;;0.80;0.70;;;14.10;93.50;;;14.33;46.92;102951.47;4951136;28;98145;-50
2022/01/24 03:58:44;;;;;;;0.73;0.50;;;14.00;95.70;;;14.29;47.03;102950.63;4973368;28;97481;-50
2022/01/24 04:01:11;;;;;;;2.10;0.97;;;13.90;96.10;;;14.25;45.99;102948.06;4953094;28;97017;-54
2022/01/24 04:03:38;;;;;;;0.77;0.50;;;13.90;94.10;;;14.41;46.70;102957.53;4963679;28;98935;-47
2022/01/24 04:06:05;;;;;;;0.70;0.60;;;14.20;96.30;;;14.52;46.33;102950.31;4959964;28;97585;-51
2022/01/24 04:08:31;;;;;;;1.10;0.93;;;14.40;95.20;;;14.53;46.45;102960.03;4954674;28;97262;-49
2022/01/24 04:10:58;;;;;;;1.17;1.07;;;14.40;94.60;;;14.41;46.42;102944.25;4960301;28;97399;-49
2022/01/24 04:24:09;;;;;;;1.47;1.20;;;14.30;95.60;;;14.53;44.45;102944.09;4951516;28;97465;-49
2022/01/24 04:26:37;;;;;;;1.07;0.90;;;14.30;93.00;;;14.48;46.34;102940.66;4952059;28;102885;-50
2022/01/24 04:29:05;;;;;;;1.13;0.70;;;14.10;94.70;;;14.36;46.78;102940.81;4958163;28;101864;-48
2022/01/24 04:31:32;;;;;;;0.50;0.50;;;14.00;94.50;;;14.41;46.85;102941.59;4955108;28;96957;-49
2022/01/24 04:33:58;;;;;;;2.33;1.00;;;14.00;96.80;;;14.41;46.55;102944.25;4950974;28;97230;-52
2022/01/24 04:36:26;;;;;;;0.50;0.50;;;14.10;95.10;;;14.40;46.79;102946.94;4941136;28;98855;-49
2022/01/24 04:38:52;;;;;;;0.53;0.53;;;14.00;96.20;;;14.42;46.87;102946.00;4958480;28;101323;-47
2022/01/24 04:41:26;;;;;;;0.63;0.57;;;14.10;96.00;;;14.40;46.73;102953.13;4947169;28;96977;-49
2022/01/24 04:55:00;;;;;;;0.50;0.50;;;13.60;95.80;;;14.13;47.46;102964.16;4953523;28;97253;-47
2022/01/24 04:57:01;;;;;;;0.73;0.57;;;13.50;95.90;;;14.19;47.53;102964.97;4960248;28;96835;-50
2022/01/24 04:59:27;;;;;;;1.60;1.30;;;13.70;96.10;;;14.22;47.06;102961.38;4957944;28;97031;-50
2022/01/24 05:01:53;;;;;;;0.40;0.40;;;13.80;95.20;;;14.26;47.28;102955.13;4957308;28;113114;-49
2022/01/24 05:04:18;;;;;;;2.07;0.50;;;13.80;97.00;;;14.27;47.14;102956.88;4956657;28;107716;-48
2022/01/24 05:06:44;;;;;;;0.30;0.30;;;13.90;95.60;;;14.25;47.19;102966.63;4956873;28;100293;-48
2022/01/24 05:09:10;;;;;;;0.50;0.50;;;13.80;95.60;;;14.33;47.13;102966.53;4951776;28;97174;-58
2022/01/24 05:25:17;;;;;;;0.63;0.60;;;14.90;94.50;;;14.85;45.72;102950.66;4910312;28;96658;-51
2022/01/24 05:27:43;;;;;;;0.40;0.40;;;14.80;94.20;;;14.92;45.91;102957.63;4955722;28;97621;-49
2022/01/24 05:30:10;;;;;;;0.33;0.33;;;14.90;94.50;;;14.95;45.69;102962.03;4948975;28;97737;-59
2022/01/24 05:32:35;;;;;;;0.70;0.47;;;14.90;94.70;;;14.88;45.88;102961.22;4955307;28;97124;-49
2022/01/24 05:35:01;;;;;;;2.20;1.00;;;14.70;95.20;;;14.85;45.55;102954.19;4965417;28;115533;-47
2022/01/24 05:37:27;;;;;;;1.17;0.60;;;14.70;93.60;;;14.83;45.97;102957.78;4954751;28;97075;-47
2022/01/24 05:39:53;;;;;;;0.40;0.40;;;14.60;95.30;;;14.83;45.86;102952.47;4958060;28;97258;-48
2022/01/24 05:42:21;;;;;;;1.07;0.40;;;14.60;95.50;;;14.83;45.93;102969.28;4954139;28;97249;-48
2022/01/24 05:44:52;;;;;;;0.50;0.30;;;14.70;95.20;;;14.82;45.53;102956.91;4955268;28;97103;-49
2022/01/24 05:47:18;;;;;;;0.50;0.40;;;14.60;94.10;;;14.74;46.04;102957.94;4954681;28;97644;-53
2022/01/24 05:49:45;;;;;;;0.60;0.40;;;14.40;95.10;;;14.69;46.11;102965.09;4957611;28;98417;-48
2022/01/24 05:52:11;;;;;;;0.37;0.37;;;14.30;94.60;;;14.69;46.02;102960.66;4958869;28;97195;-56
2022/01/24 05:54:39;;;;;;;0.60;0.50;;;14.40;96.00;;;14.70;46.00;102950.91;4956049;28;96842;-49
2022/01/24 05:57:06;;;;;;;0.40;0.30;;;14.40;94.80;;;14.72;46.03;102954.41;4959554;28;97543;-49
2022/01/24 05:59:32;;;;;;;1.90;0.90;;;14.50;94.90;;;14.63;45.95;102954.59;4937679;28;97466;-52
2022/01/24 06:01:58;;;;;;;0.40;0.40;;;14.30;94.00;;;14.54;46.29;102955.59;4969224;28;106535;-50
2022/01/24 06:04:24;;;;;;;0.43;0.40;;;14.10;95.00;;;14.46;46.67;102958.38;4951491;28;112810;-53
2022/01/24 06:06:50;;;;;;;1.87;0.97;;;14.00;95.60;;;14.39;46.59;102962.00;4959533;28;97231;-51
2022/01/24 06:09:16;;;;;;;1.27;0.70;;;13.80;94.30;;;14.24;47.09;102967.53;4953719;28;97161;-50
2022/01/24 06:11:43;;;;;;;0.80;0.63;;;13.50;94.70;;;14.13;47.34;102961.50;4942049;28;97219;-54
2022/01/24 06:14:10;;;;;;;1.53;0.60;;;13.40;96.50;;;14.09;47.57;102965.97;4947596;28;97146;-59
2022/01/24 06:16:36;;;;;;;1.10;0.70;;;13.40;96.20;;;14.00;47.77;102964.31;4953401;28;101718;-49
2022/01/24 06:19:02;;;;;;;2.83;0.90;;;13.30;95.20;;;13.91;48.02;102969.75;4958747;28;96973;-50
2022/01/24 06:21:28;;;;;;;0.53;0.47;;;13.10;95.70;;;13.83;48.16;102970.75;4951474;28;116967;-51
2022/01/24 06:23:54;;;;;;;0.47;0.47;;;13.00;97.20;;;13.79;48.36;102972.56;4958857;28;97468;-48
2022/01/24 06:26:20;;;;;;;1.50;1.03;;;13.00;96.30;;;13.74;48.35;102973.50;4952147;28;102180;-48
2022/01/24 06:28:45;;;;;;;1.07;0.60;;;12.80;96.10;;;13.67;48.78;102970.06;4949882;28;126379;-52
2022/01/24 06:31:12;;;;;;;1.37;0.90;;;12.80;97.20;;;13.63;48.96;102978.97;4950821;28;116712;-51
2022/01/24 06:33:37;;;;;;;1.10;0.97;;;12.70;96.50;;;13.59;48.88;102970.13;4951036;28;97138;-50
2022/01/24 06:36:04;;;;;;;1.63;1.20;;;12.70;97.10;;;13.55;48.99;102980.81;4958161;28;124479;-49
2022/01/24 06:38:30;;;;;;;2.60;1.57;;;12.60;96.60;;;13.44;49.15;102980.03;4951211;28;96847;-47
2022/01/24 06:40:56;;;;;;;0.77;0.73;;;12.50;96.10;;;13.38;49.47;102979.22;4958796;28;114693;-50
2022/01/24 06:43:22;;;;;;;3.67;2.03;;;12.40;97.40;;;13.32;49.14;102984.59;4954908;28;104653;-47
2022/01/24 06:45:47;;;;;;;0.83;0.77;;;12.20;96.80;;;13.30;49.66;102990.78;4960473;28;97332;-50
2022/01/24 06:48:13;;;;;;;0.87;0.77;;;12.20;98.00;;;13.29;49.74;102989.91;4955635;28;97929;-49
2022/01/24 06:50:39;;;;;;;4.63;2.77;;;12.30;97.40;;;13.26;49.72;102992.59;4954776;28;100950;-48
2022/01/24 06:53:05;;;;;;;1.93;1.43;;;12.30;96.80;;;13.21;49.71;102989.13;4956006;28;96822;-49
2022/01/24 06:55:31;;;;;;;6.30;3.30;;;12.20;97.50;;;13.15;49.38;102993.56;4956748;28;98593;-50
2022/01/24 06:57:57;;;;;;;4.87;2.00;;;12.10;96.70;;;13.08;50.13;102990.09;4956174;28;98259;-49
2022/01/24 07:00:26;;;;;;;8.00;2.23;;;12.00;97.50;;;13.07;50.08;102986.56;4956806;28;96967;-48
2022/01/24 07:02:53;;;;;;;5.63;1.90;;;12.00;97.40;;;13.04;50.20;102976.00;4963677;28;96972;-46
2022/01/24 07:05:20;;;;;;;4.13;1.43;;;12.00;97.20;;;13.01;50.29;102983.06;4957974;28;97831;-48
2022/01/24 07:07:46;;;;;;;5.00;1.70;;;11.90;97.70;;;12.96;50.47;102985.78;4963081;28;126369;-50
2022/01/24 07:10:11;;;;;;;1.87;1.03;;;11.90;97.70;;;12.91;50.59;102984.06;4957292;28;97517;-49
2022/01/24 07:12:37;;;;;;;4.23;2.10;;;11.70;97.80;;;12.89;50.49;102973.50;4966430;28;105498;-47
2022/01/24 07:15:09;;;;;;;5.67;2.43;;;11.70;98.00;;;12.87;49.81;102980.53;4959671;28;97415;-48
2022/01/24 07:17:59;;;;;;;2.80;1.80;;;11.80;97.30;;;12.82;50.74;102974.41;4955106;28;101358;-47
2022/01/24 07:20:21;;;;;;;2.83;1.37;;;11.70;97.60;;;12.76;50.86;102972.72;4952417;28;98706;-48
2022/01/24 07:22:47;;;;;;;1.80;1.23;;;11.60;97.80;;;12.72;51.05;102970.97;4963556;28;97078;-49
2022/01/24 07:25:13;;;;;;;1.87;1.20;;;11.60;97.80;;;12.73;51.07;102982.44;4953943;28;97278;-48
2022/01/24 07:27:38;;;;;;;1.63;1.00;;;11.60;98.40;;;12.73;50.86;102983.34;4955950;28;119703;-48
2022/01/24 07:30:31;;;;;;;1.87;1.00;;;11.60;98.30;;;12.78;50.83;102986.81;4960036;28;104546;-52
2022/01/24 07:32:58;;;;;;;2.00;1.60;;;11.70;98.40;;;12.75;50.96;102980.69;4954453;28;96935;-48
2022/01/24 07:35:23;;;;;;;2.77;1.03;;;11.60;98.00;;;12.71;51.15;102977.16;4941494;28;97893;-50
2022/01/24 07:37:49;;;;;;;2.47;1.87;;;11.60;98.40;;;12.73;50.50;102980.69;4956995;28;97255;-51
2022/01/24 07:40:16;;;;;;;1.83;1.30;;;11.60;97.50;;;12.67;51.05;102983.38;4939974;28;117358;-51
2022/01/24 07:42:54;;;;;;;2.43;1.53;;;11.50;98.50;;;12.66;51.03;102986.91;4945477;28;97762;-47
2022/01/24 07:45:23;;;;;;;5.57;1.57;;;11.50;98.20;;;12.65;50.90;102990.44;4941332;28;97642;-49
2022/01/24 07:47:50;;;;;;;4.60;2.67;;;11.50;98.10;;;12.62;50.46;102998.44;4908299;28;99227;-51
2022/01/24 07:50:21;;;;;;;1.40;1.30;;;11.40;97.60;;;12.60;51.06;102999.31;4946236;28;98729;-52
2022/01/24 07:52:47;;;;;;;4.20;2.13;;;11.40;98.10;;;12.55;50.39;102999.34;4943729;28;97721;-51
2022/01/24 07:55:12;;;;;;;2.73;1.93;;;11.30;97.90;;;12.53;50.66;103006.41;4942883;28;114148;-50
2022/01/24 07:57:38;;;;;;;3.60;2.13;;;11.30;98.20;;;12.55;51.16;103004.63;4944670;28;117184;-49
2022/01/24 08:00:07;;;;;;;2.00;1.30;;;11.40;98.10;;;12.47;51.25;103011.75;4945828;28;97864;-51
2022/01/24 08:02:33;;;;;;;4.20;1.67;;;11.30;98.20;;;12.46;51.40;103010.00;4939520;28;97821;-48
2022/01/24 08:04:59;;;;;;;3.13;1.80;;;11.20;98.30;;;12.43;51.33;103004.72;4947230;28;97503;-49
2022/01/24 08:07:25;;;;;;;4.30;1.93;;;11.20;98.40;;;12.45;51.37;103018.84;4941762;28;126395;-48
2022/01/24 08:09:51;;;;;;;3.20;1.97;;;11.20;98.70;;;12.42;51.32;103009.13;4947814;28;97583;-47
2022/01/24 08:12:18;;;;;;;4.23;1.73;;;11.20;98.20;;;12.39;51.73;103013.56;4942237;28;117400;-49
2022/01/24 08:14:44;;;;;;;5.27;2.37;;;11.10;99.00;;;12.39;51.62;103011.78;4944841;28;97663;-51
2022/01/24 08:17:10;;;;;;;1.73;1.30;;;11.20;99.00;;;12.41;51.73;103006.50;4944928;28;98114;-56
2022/01/24 08:19:35;;;;;;;1.67;1.00;;;11.30;99.60;;;12.43;51.90;103010.00;4938116;28;97859;-48
2022/01/24 08:22:02;;;;;;;2.80;2.10;;;11.30;99.90;;;12.48;51.46;103003.81;4946143;28;98241;-51
2022/01/24 08:24:28;;;;;;;1.77;1.37;;;11.40;98.90;;;12.52;51.58;103012.59;4941867;28;98158;-49
2022/01/24 08:26:54;;;;;;;1.53;0.87;;;11.40;99.50;;;12.54;51.43;103010.81;4946206;28;97337;-52
2022/01/24 08:29:20;;;;;;;1.20;1.00;;;11.50;99.80;;;12.66;51.37;103016.03;4935477;28;98564;-47
2022/01/24 08:31:46;;;;;;;1.90;1.33;;;11.70;99.80;;;12.78;50.88;103013.31;4938851;28;98198;-51
2022/01/24 08:34:12;;;;;;;1.13;0.80;;;11.90;99.40;;;12.95;50.63;103012.28;4932546;28;100090;-50
2022/01/24 08:36:38;;;;;;;1.20;0.90;;;12.10;99.90;;;13.12;50.23;103013.00;4937971;28;102537;-51
2022/01/24 08:39:08;;;;;;;1.43;0.90;;;12.40;99.80;;;13.42;49.60;103019.81;4938214;28;97789;-52
2022/01/24 08:42:14;;;;;;;2.20;1.07;;;12.90;99.10;;;13.74;48.55;103010.63;4937114;28;98826;-47
2022/01/24 08:47:12;;;;;;;2.00;1.03;;;13.90;97.20;;;14.35;47.43;103024.03;4934208;28;97747;-49
2022/01/24 08:49:38;;;;;;;1.50;0.97;;;14.40;96.60;;;14.62;46.59;103024.56;4936384;28;118989;-51
2022/01/24 08:52:04;;;;;;;1.77;1.10;;;14.70;95.90;;;14.76;46.11;103026.09;4936887;28;108511;-48
2022/01/24 08:54:30;;;;;;;1.20;0.90;;;14.90;95.80;;;14.94;45.58;103035.56;4934024;28;98512;-46
2022/01/24 08:56:56;;;;;;;2.50;0.97;;;15.10;95.10;;;15.04;45.17;103037.13;4936471;28;117337;-48
2022/01/24 08:59:22;;;;;;;0.90;0.90;;;15.20;94.80;;;15.15;44.97;103029.88;4930612;28;98973;-49
2022/01/24 09:01:48;;;;;;;1.13;0.93;;;15.30;94.90;;;15.23;44.98;103034.19;4936113;28;98820;-53
2022/01/24 09:04:14;;;;;;;1.43;1.20;;;15.40;94.30;;;15.27;44.82;103022.59;4930406;28;98547;-51
2022/01/24 09:06:40;;;;;;;2.50;0.90;;;15.40;94.20;;;15.32;44.71;103026.03;4935083;28;118295;-49
2022/01/24 09:09:05;;;;;;;1.93;1.30;;;15.40;94.20;;;15.39;44.28;103022.38;4938619;28;98108;-52
2022/01/24 09:11:35;;;;;;;1.23;0.80;;;15.50;94.00;;;15.46;44.22;103024.00;4933830;28;97929;-47
2022/01/24 09:14:04;;;;;;;1.60;1.27;;;15.60;93.70;;;15.48;44.10;103022.22;4937879;28;98349;-50
2022/01/24 09:16:30;;;;;;;1.33;0.90;;;15.60;93.90;;;15.51;44.18;103022.13;4934985;28;97624;-49
2022/01/24 09:18:56;;;;;;;1.30;0.87;;;15.70;93.70;;;15.56;43.90;103014.94;4937258;28;103496;-50
2022/01/24 09:21:23;;;;;;;2.37;1.00;;;15.70;93.70;;;15.60;43.67;103019.31;4934208;28;99127;-53
2022/01/24 09:23:49;;;;;;;2.10;1.17;;;15.80;93.90;;;15.66;43.87;103021.88;4936307;28;98338;-50
2022/01/24 09:26:18;;;;;;;0.83;0.73;;;15.80;93.50;;;15.69;43.67;103021.81;4933488;28;97511;-48
2022/01/24 09:28:44;;;;;;;1.13;0.83;;;15.80;93.10;;;15.64;43.69;103018.38;4936828;28;97600;-50
2022/01/24 09:31:10;;;;;;;0.80;0.80;;;15.80;92.90;;;15.66;43.77;103016.56;4936821;28;98582;-59
2022/01/24 09:33:36;;;;;;;1.90;1.07;;;15.80;93.40;;;15.69;43.49;103013.81;4936282;28;111658;-51
2022/01/24 09:36:03;;;;;;;1.90;0.80;;;15.80;93.40;;;15.68;43.62;103009.41;4938814;28;122241;-52
2022/01/24 09:38:32;;;;;;;2.00;1.13;;;15.80;93.30;;;15.61;43.69;103017.53;4934495;28;97910;-49
2022/01/24 09:41:04;;;;;;;1.53;1.23;;;15.70;93.20;;;15.59;43.87;103006.94;4937179;28;98632;-50
2022/01/24 09:43:30;;;;;;;1.37;1.10;;;15.60;93.90;;;15.57;43.98;103002.50;4933862;28;99165;-50
2022/01/24 09:45:57;;;;;;;1.50;1.10;;;15.60;93.60;;;15.53;43.62;103003.50;4936243;28;98755;-49
2022/01/24 09:48:24;;;;;;;1.80;0.90;;;15.60;92.50;;;15.40;44.22;103002.84;4933476;28;98648;-49
2022/01/24 09:50:52;;;;;;;1.27;0.90;;;15.30;93.40;;;15.43;44.07;103008.09;4937751;28;97041;-50
2022/01/24 09:53:23;;;;;;;1.37;0.90;;;15.30;93.90;;;15.46;43.86;103011.56;4936516;28;98092;-48
2022/01/24 09:55:50;;;;;;;3.90;3.20;;;15.40;93.60;;;15.41;42.07;103010.78;4934510;28;99417;-51
2022/01/24 09:58:17;;;;;;;5.43;2.87;;;15.40;90.90;;;15.29;43.02;103010.13;4936257;28;97871;-53
2022/01/24 10:00:44;;;;;;;1.70;1.60;;;15.20;91.50;;;15.02;44.34;103015.03;4936426;28;96983;-49
2022/01/24 10:03:14;;;;;;;1.57;1.47;;;14.80;92.40;;;14.93;44.89;103017.84;4936546;28;97312;-57
2022/01/24 10:05:42;;;;;;;0.97;0.80;;;14.60;93.90;;;14.83;45.02;103026.88;4935404;28;102219;-51
2022/01/24 10:08:16;;;;;;;1.07;0.80;;;14.50;94.00;;;14.93;45.32;103028.50;4937851;28;98362;-47
2022/01/24 10:10:46;;;;;;;1.23;1.10;;;14.70;95.10;;;15.01;45.09;103018.59;4933506;28;98419;-48
2022/01/24 10:19:14;;;;;;;1.10;0.80;;;15.20;94.00;;;15.14;44.15;103006.84;4937397;28;98203;-48
2022/01/24 10:21:45;;;;;;;1.30;1.10;;;15.10;92.50;;;15.23;44.54;103004.94;4932874;28;97928;-45
2022/01/24 10:24:43;;;;;;;1.40;0.97;;;15.30;93.70;;;15.27;44.37;103017.25;4934393;28;98880;-55
2022/01/24 10:27:23;;;;;;;1.13;1.03;;;15.30;92.90;;;15.33;44.18;103011.81;4936113;28;100310;-56
2022/01/24 10:30:08;;;;;;;2.20;1.73;;;15.40;93.10;;;15.39;42.08;103014.38;4931070;28;98406;-47
2022/01/24 10:32:38;;;;;;;1.70;0.97;;;15.50;90.50;;;15.44;44.14;103015.16;4935793;28;98305;-45
2022/01/24 10:35:39;;;;;;;0.93;0.80;;;15.60;93.40;;;15.54;43.70;103007.91;4935446;28;98547;-51
2022/01/24 10:38:30;;;;;;;3.97;2.07;;;15.60;93.10;;;15.58;43.59;103006.94;4869145;28;99905;-48
2022/01/24 10:41:20;;;;;;;0.90;0.80;;;15.70;92.50;;;15.64;43.49;103013.06;4938596;28;98044;-51
2022/01/24 10:43:52;;;;;;;0.93;0.80;;;15.80;92.80;;;15.73;43.13;103004.88;4938007;28;97085;-50
2022/01/24 10:46:26;;;;;;;1.43;0.90;;;15.90;92.60;;;15.79;42.99;103000.34;4923456;28;97450;-46
2022/01/24 10:49:12;;;;;;;2.53;2.10;;;16.00;92.30;;;15.75;42.38;103000.38;4939202;28;96988;-46
2022/01/24 10:51:44;;;;;;;1.60;0.60;;;15.90;90.50;;;15.65;43.48;102992.66;4936458;28;97658;-49
2022/01/24 10:54:13;;;;;;;1.03;0.87;;;15.70;93.00;;;15.70;43.35;102996.94;4936333;28;97493;-57
2022/01/24 10:56:43;;;;;;;1.03;0.70;;;15.80;92.80;;;15.77;42.90;102981.75;4910845;28;102271;-48
2022/01/24 10:59:16;;;;;;;1.27;0.90;;;15.90;92.60;;;15.83;42.88;102981.63;4935133;28;98707;-47
2022/01/24 11:01:50;;;;;;;1.10;0.70;;;16.00;92.50;;;15.87;42.89;102990.41;4928614;28;97611;-50
2022/01/24 11:04:17;;;;;;;0.67;0.60;;;16.10;92.40;;;15.92;42.77;102991.22;4937529;28;98517;-51
2022/01/24 11:06:46;;;;;;;0.77;0.77;;;16.10;92.30;;;15.92;42.99;102986.75;4931609;28;97631;-48
2022/01/24 11:09:22;;;;;;;0.70;0.70;;;16.20;92.30;;;15.84;43.21;102985.16;4924371;28;99251;-47
2022/01/24 11:12:07;;;;;;;0.70;0.70;;;16.20;92.30;;;15.95;42.55;102985.81;4927151;28;99613;-47
2022/01/24 11:14:33;;;;;;;3.67;1.70;;;16.20;92.10;;;15.93;42.07;102987.63;4920146;28;98348;-53
2022/01/24 11:17:03;;;;;;;0.87;0.80;;;16.20;90.80;;;15.94;42.75;102984.06;4921408;28;97514;-51
2022/01/24 11:19:40;;;;;;;1.77;1.00;;;16.20;92.00;;;15.96;42.75;102984.91;4914969;28;98093;-50
2022/01/24 11:22:19;;;;;;;1.77;0.80;;;16.20;92.10;;;15.99;42.76;102983.03;4919864;28;97870;-48
2022/01/24 11:24:58;;;;;;;0.80;0.70;;;16.20;92.00;;;15.97;42.34;102987.53;4920522;28;98859;-51
2022/01/24 11:27:25;;;;;;;0.80;0.80;;;16.20;91.80;;;15.96;42.49;102982.25;4909880;28;97257;-48
2022/01/24 11:30:00;;;;;;;0.50;0.50;;;16.20;91.90;;;16.00;42.41;102973.25;4929830;28;98178;-48
2022/01/24 11:32:48;;;;;;;1.30;0.70;;;16.20;91.60;;;15.97;42.19;102968.88;4936994;28;97037;-46
2022/01/24 11:35:38;;;;;;;0.73;0.70;;;16.10;91.40;;;15.90;42.78;102961.06;4936957;28;97054;-49
2022/01/24 11:38:04;;;;;;;1.93;1.37;;;16.00;92.30;;;15.79;42.67;102969.28;4941135;28;100127;-49
2022/01/24 11:40:47;;;;;;;1.37;0.80;;;15.90;91.50;;;15.82;42.16;102963.03;4922473;28;100044;-48
2022/01/24 11:43:37;;;;;;;0.87;0.80;;;15.90;90.60;;;15.74;43.19;102969.38;4922278;28;98615;-52
2022/01/24 11:46:25;;;;;;;0.80;0.70;;;15.70;92.80;;;15.68;42.29;102964.19;4930934;28;98938;-50
2022/01/24 11:49:32;;;;;;;3.03;2.10;;;15.70;91.80;;;15.63;43.07;102968.72;4929671;28;102942;-48
2022/01/24 11:52:15;;;;;;;0.80;0.70;;;15.60;90.30;;;15.66;43.18;102965.13;4944757;28;100926;-50
2022/01/24 11:55:00;;;;;;;1.07;0.60;;;15.70;92.60;;;15.60;43.08;102967.91;4929543;28;97002;-50
2022/01/24 11:57:41;;;;;;;5.03;4.40;;;15.60;91.40;;;15.57;42.91;102963.47;4928482;28;96869;-51
2022/01/24 12:00:27;;;;;;;3.23;1.10;;;15.50;91.20;;;15.51;43.50;102949.44;4925158;28;98657;-49
2022/01/24 12:03:02;;;;;;;0.67;0.67;;;15.50;91.40;;;15.45;43.89;102953.09;4928538;28;101443;-48
2022/01/24 12:05:53;;;;;;;0.73;0.70;;;15.30;93.20;;;15.47;43.88;102951.25;4940037;28;98842;-51
2022/01/24 12:08:51;;;;;;;0.80;0.77;;;15.40;93.30;;;15.53;43.84;102944.97;4926515;28;97604;-50
2022/01/24 12:11:34;;;;;;;0.80;0.80;;;15.50;93.00;;;15.46;43.79;102944.19;4915459;28;97848;-51
2022/01/24 12:14:23;;;;;;;0.70;0.70;;;15.40;92.10;;;15.31;44.03;102934.72;4934699;28;100408;-50
2022/01/24 12:16:49;;;;;;;2.17;0.97;;;15.10;92.90;;;15.41;44.00;102938.09;4928077;28;96813;-53
2022/01/24 12:19:28;;;;;;;0.70;0.60;;;15.30;93.40;;;15.52;43.64;102948.53;4927952;28;99888;-50
2022/01/24 12:21:54;;;;;;;0.90;0.80;;;15.50;93.10;;;15.59;43.62;102945.72;4932246;28;98378;-45
2022/01/24 12:24:21;;;;;;;1.70;0.70;;;15.70;92.80;;;15.67;43.26;102942.94;4938915;28;109926;-50